Terminal Aerodrome Forecast
Issued by NWS

Current Version | Previous Version | Text Only | Print | Product List | Glossary On
Versions: 1 2 3 4 5 6 7 8 9 10 11 12
103
FTUS46 KMTR 111727
TAFMRY
TAF
KMRY 111727Z 1118/1218 28005KT P6SM SCT200
     FM120300 21003KT P6SM SKC
     FM121000 VRB03KT P6SM OVC010
     FM121600 VRB03KT P6SM FEW200=

USA.gov is the U.S. government's official web portal to all federal, state and local government web resources and services.